createdAt,value
2018-09-30T00:00:08.354Z,27.90
2018-09-30T00:02:37.747Z,27.40
2018-09-30T00:05:05.920Z,27.73
2018-09-30T00:07:33.873Z,27.97
2018-09-30T00:10:01.877Z,27.57
2018-09-30T00:12:34.529Z,26.80
2018-09-30T00:15:09.802Z,28.40
2018-09-30T00:17:41.992Z,30.20
2018-09-30T00:20:11.746Z,28.67
2018-09-30T00:22:41.918Z,27.73
2018-09-30T00:25:17.269Z,27.50
2018-09-30T00:27:48.089Z,29.13
2018-09-30T00:30:18.654Z,29.87
2018-09-30T00:32:48.619Z,27.73
2018-09-30T00:35:20.121Z,27.97
2018-09-30T00:37:50.586Z,27.00
2018-09-30T00:40:25.189Z,26.57
2018-09-30T00:42:54.920Z,30.90
2018-09-30T00:45:27.870Z,28.50
2018-09-30T00:47:57.981Z,28.73
2018-09-30T00:50:30.552Z,31.50
2018-09-30T00:53:07.538Z,28.90
2018-09-30T00:55:41.719Z,29.80
2018-09-30T00:58:12.011Z,30.90
2018-09-30T01:00:46.123Z,33.73
2018-09-30T01:03:16.195Z,30.47
2018-09-30T01:05:46.743Z,27.17
2018-09-30T01:08:21.297Z,27.33
2018-09-30T01:10:53.281Z,31.90
2018-09-30T01:13:33.305Z,31.57
2018-09-30T01:16:04.884Z,27.87
2018-09-30T01:18:34.832Z,29.23
2018-09-30T01:21:08.511Z,30.20
2018-09-30T01:23:43.035Z,29.50
2018-09-30T01:26:18.372Z,29.20
2018-09-30T01:28:53.577Z,27.97
2018-09-30T01:31:24.315Z,33.70
2018-09-30T01:33:56.987Z,32.77
2018-09-30T01:36:26.571Z,28.03
2018-09-30T01:38:55.728Z,30.43
2018-09-30T01:41:28.921Z,27.53
2018-09-30T01:44:12.367Z,28.97
2018-09-30T01:46:43.144Z,29.30
2018-09-30T01:49:14.990Z,33.33
2018-09-30T01:51:45.613Z,30.60
2018-09-30T01:54:18.144Z,32.30
2018-09-30T01:56:50.267Z,33.77
2018-09-30T01:59:24.266Z,29.80
2018-09-30T02:01:55.058Z,29.20
2018-09-30T02:04:26.419Z,34.00
2018-09-30T02:06:55.985Z,35.53
2018-09-30T02:09:27.895Z,30.23
2018-09-30T02:11:57.853Z,31.70
2018-09-30T02:14:25.898Z,29.73
2018-09-30T02:16:53.895Z,29.07
2018-09-30T02:19:21.891Z,30.73
2018-09-30T02:21:49.862Z,29.47
2018-09-30T02:24:17.773Z,27.83
2018-09-30T02:26:45.890Z,29.20
2018-09-30T02:29:13.854Z,28.87
2018-09-30T02:31:42.372Z,29.90
2018-09-30T02:34:10.355Z,30.30
2018-09-30T02:36:38.265Z,29.47
2018-09-30T02:39:06.605Z,27.17
2018-09-30T02:41:34.715Z,29.73
2018-09-30T02:44:02.659Z,25.67
2018-09-30T02:46:31.588Z,25.30
2018-09-30T02:49:01.153Z,24.50
2018-09-30T02:51:30.617Z,26.03
2018-09-30T02:53:58.753Z,24.97
2018-09-30T02:56:26.702Z,27.73
2018-09-30T02:58:54.830Z,24.57
2018-09-30T03:01:22.866Z,21.73
2018-09-30T03:03:50.915Z,23.73
2018-09-30T03:06:24.151Z,23.73
2018-09-30T03:08:57.537Z,23.67
2018-09-30T03:11:26.759Z,22.67
2018-09-30T03:13:54.837Z,23.80
2018-09-30T03:16:22.831Z,23.97
2018-09-30T03:18:50.788Z,22.73
2018-09-30T03:21:18.714Z,23.70
2018-09-30T03:23:50.984Z,22.83
2018-09-30T03:26:19.132Z,23.27
2018-09-30T03:28:47.107Z,22.33
2018-09-30T03:31:14.972Z,28.97
2018-09-30T03:33:43.011Z,24.30
2018-09-30T03:36:10.956Z,20.60
2018-09-30T03:38:39.855Z,22.13
2018-09-30T03:41:07.796Z,21.30
2018-09-30T03:43:35.988Z,17.30
2018-09-30T03:46:04.258Z,17.03
2018-09-30T03:48:32.145Z,16.60
2018-09-30T03:51:03.451Z,17.60
2018-09-30T03:53:32.407Z,17.13
2018-09-30T03:56:00.971Z,19.80
2018-09-30T03:58:29.372Z,17.23
2018-09-30T04:00:58.193Z,15.90
2018-09-30T04:03:26.951Z,14.67
2018-09-30T04:05:55.481Z,17.50
2018-09-30T04:08:25.299Z,12.67
2018-09-30T04:10:53.362Z,14.10
2018-09-30T04:13:21.283Z,12.67
2018-09-30T04:15:49.199Z,16.83
2018-09-30T04:18:17.310Z,13.83
2018-09-30T04:20:45.199Z,18.70
2018-09-30T04:23:13.223Z,16.10
2018-09-30T04:25:41.189Z,15.33
2018-09-30T04:28:09.078Z,19.70
2018-09-30T04:30:36.957Z,13.80
2018-09-30T04:33:05.073Z,15.90
2018-09-30T04:35:33.420Z,14.03
2018-09-30T04:38:02.127Z,12.07
2018-09-30T04:40:30.263Z,14.87
2018-09-30T04:42:58.257Z,13.10
2018-09-30T04:45:26.769Z,15.97
2018-09-30T04:47:55.546Z,12.67
2018-09-30T04:50:23.785Z,13.63
2018-09-30T04:52:51.759Z,15.60
2018-09-30T04:55:19.945Z,11.50
2018-09-30T04:57:47.879Z,15.47
2018-09-30T05:00:16.331Z,15.10
2018-09-30T05:02:44.362Z,12.77
2018-09-30T05:05:12.360Z,12.33
2018-09-30T05:07:40.568Z,14.23
2018-09-30T05:10:08.509Z,12.17
2018-09-30T05:12:36.458Z,17.23
2018-09-30T05:15:04.437Z,16.93
2018-09-30T05:17:32.350Z,19.13
2018-09-30T05:20:00.577Z,14.90
2018-09-30T05:22:28.553Z,18.57
2018-09-30T05:24:56.602Z,14.20
2018-09-30T05:27:24.577Z,14.93
2018-09-30T05:29:52.537Z,15.73
2018-09-30T05:32:20.506Z,22.73
2018-09-30T05:34:49.472Z,21.33
2018-09-30T05:37:18.180Z,19.60
2018-09-30T05:39:46.059Z,20.50
2018-09-30T05:42:14.021Z,26.60
2018-09-30T05:44:42.159Z,21.93
2018-09-30T05:47:10.169Z,24.63
2018-09-30T05:49:38.172Z,25.27
2018-09-30T05:52:06.242Z,24.27
2018-09-30T05:54:34.361Z,27.43
2018-09-30T05:57:02.370Z,27.43
2018-09-30T05:59:31.386Z,25.63
2018-09-30T06:01:59.378Z,26.97
2018-09-30T06:04:27.407Z,27.10
2018-09-30T06:06:55.351Z,27.03
2018-09-30T06:09:23.356Z,32.90
2018-09-30T06:11:51.386Z,30.80
2018-09-30T06:14:19.595Z,28.97
2018-09-30T06:16:47.468Z,26.87
2018-09-30T06:19:15.458Z,26.97
2018-09-30T06:21:43.480Z,25.93
2018-09-30T06:24:12.129Z,28.87
2018-09-30T06:26:40.353Z,27.23
2018-09-30T06:31:49.157Z,29.93
2018-09-30T06:34:17.105Z,28.23
2018-09-30T06:36:45.039Z,29.27
2018-09-30T06:39:13.000Z,29.23
2018-09-30T06:41:41.235Z,27.17
2018-09-30T06:44:09.512Z,29.33
2018-09-30T06:46:37.622Z,28.57
2018-09-30T06:49:07.431Z,27.60
2018-09-30T06:51:35.537Z,29.73
2018-09-30T06:54:03.448Z,28.30
2018-09-30T06:56:31.621Z,35.13
2018-09-30T06:58:59.649Z,27.57
2018-09-30T07:01:27.602Z,29.00
2018-09-30T07:03:55.604Z,28.03
2018-09-30T07:06:23.875Z,29.70
2018-09-30T07:08:51.943Z,32.00
2018-09-30T07:11:21.088Z,29.10
2018-09-30T07:13:49.017Z,27.30
2018-09-30T07:16:17.091Z,26.83
2018-09-30T07:18:45.119Z,31.10
2018-09-30T07:21:13.093Z,30.10
2018-09-30T07:23:41.142Z,25.93
2018-09-30T07:26:09.213Z,28.07
2018-09-30T07:28:37.206Z,34.40
2018-09-30T07:31:05.071Z,34.60
2018-09-30T07:33:33.016Z,31.87
2018-09-30T07:36:01.014Z,30.10
2018-09-30T07:38:29.133Z,30.83
2018-09-30T07:40:57.085Z,32.67
2018-09-30T07:43:25.126Z,25.53
2018-09-30T07:45:53.007Z,24.73
2018-09-30T07:48:21.127Z,23.93
2018-09-30T07:50:49.077Z,27.70
2018-09-30T07:53:17.097Z,30.10
2018-09-30T07:55:45.206Z,22.63
2018-09-30T07:58:13.276Z,25.20
2018-09-30T08:00:42.016Z,26.87
2018-09-30T08:03:10.830Z,29.07
2018-09-30T08:05:38.794Z,24.17
2018-09-30T08:08:06.822Z,29.20
2018-09-30T08:10:34.867Z,23.43
2018-09-30T08:13:02.919Z,25.00
2018-09-30T08:15:30.963Z,24.37
2018-09-30T08:17:58.941Z,21.57
2018-09-30T08:20:26.946Z,21.47
2018-09-30T08:22:54.926Z,22.23
2018-09-30T08:25:23.174Z,25.67
2018-09-30T08:27:51.130Z,23.37
2018-09-30T08:30:20.561Z,30.40
2018-09-30T08:32:48.578Z,21.90
2018-09-30T08:35:17.662Z,21.53
2018-09-30T08:37:51.176Z,20.93
2018-09-30T08:40:24.714Z,21.60
2018-09-30T08:42:52.973Z,18.57
2018-09-30T08:45:21.537Z,14.63
2018-09-30T08:47:49.694Z,16.60
2018-09-30T08:50:17.867Z,16.40
2018-09-30T08:52:45.814Z,18.20
2018-09-30T08:55:13.968Z,19.03
2018-09-30T08:57:42.110Z,15.07
2018-09-30T09:00:10.080Z,13.17
2018-09-30T09:02:38.064Z,15.47
2018-09-30T09:05:06.095Z,20.03
2018-09-30T09:07:34.263Z,15.43
2018-09-30T09:10:02.178Z,15.30
2018-09-30T09:12:30.241Z,17.43
2018-09-30T09:14:58.353Z,12.77
2018-09-30T09:17:26.312Z,15.27
2018-09-30T09:19:54.204Z,15.57
2018-09-30T09:22:22.302Z,14.47
2018-09-30T09:24:50.410Z,16.77
2018-09-30T09:27:18.623Z,15.23
2018-09-30T09:29:46.733Z,20.50
2018-09-30T09:32:14.779Z,18.73
2018-09-30T09:34:42.751Z,19.93
2018-09-30T09:37:10.691Z,19.87
2018-09-30T09:39:38.766Z,16.77
2018-09-30T09:42:06.840Z,20.20
2018-09-30T09:44:34.802Z,21.60
2018-09-30T09:47:02.829Z,19.37
2018-09-30T09:49:30.918Z,20.47
2018-09-30T09:51:58.874Z,18.00
2018-09-30T09:54:26.953Z,14.73
2018-09-30T09:56:54.926Z,13.97
2018-09-30T09:59:22.946Z,10.50
2018-09-30T10:01:50.908Z,9.97
2018-09-30T10:04:18.975Z,8.67
2018-09-30T10:06:46.990Z,10.30
2018-09-30T10:09:14.894Z,8.00
2018-09-30T10:11:42.948Z,6.97
2018-09-30T10:14:10.931Z,7.33
2018-09-30T10:16:39.246Z,7.93
2018-09-30T10:19:07.201Z,6.67
2018-09-30T10:21:35.155Z,6.13
2018-09-30T10:24:04.112Z,5.13
2018-09-30T10:26:32.373Z,5.30
2018-09-30T10:29:00.305Z,6.77
2018-09-30T10:31:28.231Z,5.17
2018-09-30T10:33:56.399Z,6.43
2018-09-30T10:36:26.618Z,5.57
2018-09-30T10:38:55.298Z,8.17
2018-09-30T10:41:23.671Z,12.23
2018-09-30T10:43:51.817Z,12.40
2018-09-30T10:46:20.077Z,16.43
2018-09-30T10:48:48.495Z,15.87
2018-09-30T10:51:16.902Z,12.90
2018-09-30T10:53:44.886Z,14.40
2018-09-30T10:56:13.161Z,12.60
2018-09-30T10:58:41.202Z,7.93
2018-09-30T11:01:10.285Z,10.03
2018-09-30T11:03:38.410Z,11.67
2018-09-30T11:06:06.669Z,8.47
2018-09-30T11:08:34.635Z,9.30
2018-09-30T11:11:02.586Z,14.73
2018-09-30T11:13:30.600Z,26.57
2018-09-30T11:15:58.581Z,11.63
2018-09-30T11:18:26.539Z,8.47
2018-09-30T11:20:54.458Z,7.60
2018-09-30T11:23:23.214Z,15.47
2018-09-30T11:25:51.167Z,9.23
2018-09-30T11:28:19.196Z,9.97
2018-09-30T11:30:47.163Z,9.33
2018-09-30T11:33:15.040Z,11.53
2018-09-30T11:35:43.013Z,11.17
2018-09-30T11:38:11.154Z,15.43
2018-09-30T11:40:39.168Z,7.23
2018-09-30T11:43:07.182Z,11.83
2018-09-30T11:45:35.141Z,8.73
2018-09-30T11:48:03.171Z,9.60
2018-09-30T11:50:31.116Z,10.03
2018-09-30T11:52:59.074Z,11.73
2018-09-30T11:55:27.012Z,10.50
2018-09-30T11:57:55.277Z,9.60
2018-09-30T12:00:23.346Z,13.20
2018-09-30T12:02:52.071Z,8.77
2018-09-30T12:05:20.407Z,12.47
2018-09-30T12:07:48.341Z,12.43
2018-09-30T12:10:16.529Z,11.73
2018-09-30T12:12:44.529Z,11.37
2018-09-30T12:15:12.511Z,8.50
2018-09-30T12:17:40.475Z,9.63
2018-09-30T12:20:08.523Z,8.47
2018-09-30T12:22:36.936Z,8.80
2018-09-30T12:25:05.014Z,9.43
2018-09-30T12:27:34.323Z,12.90
2018-09-30T12:30:02.601Z,10.07
2018-09-30T12:32:30.954Z,11.90
2018-09-30T12:34:59.035Z,8.20
2018-09-30T12:37:27.038Z,9.37
2018-09-30T12:39:55.186Z,10.63
2018-09-30T12:42:23.529Z,8.23
2018-09-30T12:44:51.866Z,9.00
2018-09-30T12:47:20.685Z,10.67
2018-09-30T12:49:48.837Z,11.63
2018-09-30T12:52:16.899Z,10.03
2018-09-30T12:54:44.947Z,8.53
2018-09-30T12:57:12.920Z,9.77
2018-09-30T12:59:41.296Z,10.40
2018-09-30T13:02:10.270Z,7.87
2018-09-30T13:04:39.044Z,10.80
2018-09-30T13:07:07.262Z,11.20
2018-09-30T13:09:35.890Z,8.43
2018-09-30T13:12:03.938Z,8.43
2018-09-30T13:14:32.352Z,8.23
2018-09-30T13:17:00.252Z,9.20
2018-09-30T13:19:28.195Z,9.87
2018-09-30T13:21:56.154Z,9.60
2018-09-30T13:24:24.158Z,10.45
2018-09-30T13:26:52.280Z,12.07
2018-09-30T13:29:20.260Z,9.20
2018-09-30T13:31:48.213Z,12.97
2018-09-30T13:34:16.129Z,12.13
2018-09-30T13:36:44.239Z,9.67
2018-09-30T13:39:12.344Z,9.70
2018-09-30T13:41:40.622Z,9.97
2018-09-30T13:44:08.959Z,10.63
2018-09-30T13:46:37.190Z,7.83
2018-09-30T13:49:05.139Z,10.80
2018-09-30T13:51:33.193Z,12.50
2018-09-30T13:54:01.983Z,9.90
2018-09-30T13:56:30.074Z,7.00
2018-09-30T13:58:59.040Z,12.23
2018-09-30T14:01:26.970Z,10.73
2018-09-30T14:03:55.056Z,7.57
2018-09-30T14:06:23.111Z,10.03
2018-09-30T14:08:51.119Z,8.07
2018-09-30T14:11:19.109Z,12.60
2018-09-30T14:13:47.832Z,10.67
2018-09-30T14:16:16.218Z,11.13
2018-09-30T14:18:44.146Z,11.37
2018-09-30T14:21:12.170Z,13.10
2018-09-30T14:23:40.125Z,12.50
2018-09-30T14:26:08.192Z,11.37
2018-09-30T14:28:36.194Z,12.47
2018-09-30T14:31:04.306Z,11.57
2018-09-30T14:33:32.339Z,9.90
2018-09-30T14:36:00.244Z,7.93
2018-09-30T14:38:28.316Z,11.33
2018-09-30T14:40:56.494Z,7.00
2018-09-30T14:43:24.481Z,9.20
2018-09-30T14:45:52.524Z,11.90
2018-09-30T14:48:20.589Z,10.10
2018-09-30T14:50:48.645Z,6.27
2018-09-30T14:53:16.551Z,7.30
2018-09-30T14:55:44.567Z,10.23
2018-09-30T14:58:12.610Z,8.40
2018-09-30T15:00:40.710Z,8.47
2018-09-30T15:03:09.001Z,10.67
2018-09-30T15:05:37.037Z,6.40
2018-09-30T15:08:05.147Z,7.13
2018-09-30T15:10:33.204Z,12.77
2018-09-30T15:13:01.235Z,10.73
2018-09-30T15:15:29.550Z,10.77
2018-09-30T15:17:57.750Z,11.97
2018-09-30T15:20:25.838Z,15.80
2018-09-30T15:22:56.851Z,15.90
2018-09-30T15:25:25.093Z,10.83
2018-09-30T15:27:53.855Z,11.40
2018-09-30T15:30:22.127Z,9.43
2018-09-30T15:32:50.166Z,12.20
2018-09-30T15:35:19.141Z,8.17
2018-09-30T15:37:47.067Z,15.40
2018-09-30T15:40:17.153Z,9.60
2018-09-30T15:42:45.241Z,5.90
2018-09-30T15:45:13.166Z,11.37
2018-09-30T15:47:41.362Z,12.07
2018-09-30T15:50:09.684Z,10.53
2018-09-30T15:52:37.654Z,13.60
2018-09-30T15:55:05.741Z,10.63
2018-09-30T15:57:33.727Z,8.67
2018-09-30T16:00:01.799Z,9.83
2018-09-30T16:02:29.748Z,7.70
2018-09-30T16:04:57.861Z,9.57
2018-09-30T16:07:25.905Z,6.93
2018-09-30T16:09:53.855Z,10.40
2018-09-30T16:12:21.791Z,13.80
2018-09-30T16:14:49.852Z,9.13
2018-09-30T16:17:17.951Z,8.50
2018-09-30T16:19:45.912Z,7.13
2018-09-30T16:22:13.930Z,10.93
2018-09-30T16:24:42.039Z,7.83
2018-09-30T16:27:10.004Z,11.60
2018-09-30T16:29:38.583Z,8.23
2018-09-30T16:32:06.878Z,9.53
2018-09-30T16:34:35.032Z,12.07
2018-09-30T16:37:03.155Z,9.67
2018-09-30T16:39:31.462Z,26.83
2018-09-30T16:41:59.731Z,14.27
2018-09-30T16:44:28.299Z,22.57
2018-09-30T16:46:56.431Z,22.83
2018-09-30T16:49:24.457Z,16.10
2018-09-30T16:51:52.572Z,11.67
2018-09-30T16:54:20.723Z,10.93
2018-09-30T16:56:48.659Z,6.90
2018-09-30T16:59:16.753Z,6.50
2018-09-30T17:01:44.657Z,8.40
2018-09-30T17:04:13.737Z,8.13
2018-09-30T17:06:41.799Z,8.40
2018-09-30T17:09:10.766Z,6.80
2018-09-30T17:11:38.659Z,10.07
2018-09-30T17:14:06.750Z,9.97
2018-09-30T17:16:34.641Z,9.20
2018-09-30T17:19:02.813Z,6.77
2018-09-30T17:21:31.219Z,10.43
2018-09-30T17:23:59.210Z,9.83
2018-09-30T17:26:27.353Z,7.23
2018-09-30T17:28:55.364Z,11.27
2018-09-30T17:31:23.338Z,9.93
2018-09-30T17:33:51.245Z,14.33
2018-09-30T17:36:19.356Z,6.33
2018-09-30T17:38:47.321Z,6.50
2018-09-30T17:41:15.454Z,7.77
2018-09-30T17:43:43.555Z,6.73
2018-09-30T17:46:11.453Z,10.23
2018-09-30T17:48:39.412Z,9.83
2018-09-30T17:51:07.567Z,8.43
2018-09-30T17:53:35.618Z,7.93
2018-09-30T17:56:04.039Z,9.00
2018-09-30T17:58:32.035Z,7.07
2018-09-30T18:01:01.045Z,8.13
2018-09-30T18:03:29.105Z,9.47
2018-09-30T18:05:57.014Z,6.93
2018-09-30T18:08:25.008Z,6.40
2018-09-30T18:10:52.972Z,10.43
2018-09-30T18:13:21.040Z,13.53
2018-09-30T18:15:49.249Z,9.97
2018-09-30T18:18:17.156Z,8.03
2018-09-30T18:20:45.336Z,6.83
2018-09-30T18:23:13.745Z,10.23
2018-09-30T18:25:43.699Z,9.37
2018-09-30T18:28:11.809Z,12.20
2018-09-30T18:30:40.716Z,9.03
2018-09-30T18:33:09.207Z,9.47
2018-09-30T18:35:37.244Z,13.77
2018-09-30T18:38:05.358Z,11.03
2018-09-30T18:40:39.949Z,11.13
2018-09-30T18:43:08.458Z,11.80
2018-09-30T18:45:36.902Z,9.10
2018-09-30T18:48:05.219Z,11.03
2018-09-30T18:50:33.603Z,14.47
2018-09-30T18:53:03.295Z,12.93
2018-09-30T18:55:31.267Z,14.60
2018-09-30T18:57:59.908Z,13.43
2018-09-30T19:00:27.849Z,11.93
2018-09-30T19:02:56.188Z,12.67
2018-09-30T19:05:24.498Z,12.17
2018-09-30T19:07:52.508Z,9.33
2018-09-30T19:10:20.607Z,7.10
2018-09-30T19:12:48.781Z,7.73
2018-09-30T19:15:16.899Z,12.67
2018-09-30T19:17:44.793Z,7.03
2018-09-30T19:20:13.861Z,8.13
2018-09-30T19:22:42.857Z,7.50
2018-09-30T19:25:11.306Z,6.60
2018-09-30T19:27:39.231Z,6.67
2018-09-30T19:30:07.375Z,9.03
2018-09-30T19:32:35.433Z,7.50
2018-09-30T19:35:03.529Z,8.10
2018-09-30T19:37:31.526Z,8.23
2018-09-30T19:39:59.535Z,6.90
2018-09-30T19:42:27.440Z,7.07
2018-09-30T19:44:55.439Z,5.77
2018-09-30T19:47:23.431Z,7.30
2018-09-30T19:49:51.345Z,6.87
2018-09-30T19:52:19.256Z,6.63
2018-09-30T19:54:47.210Z,7.07
2018-09-30T19:57:16.046Z,5.30
2018-09-30T19:59:43.959Z,7.40
2018-09-30T20:02:11.888Z,7.53
2018-09-30T20:04:39.921Z,6.10
2018-09-30T20:07:08.346Z,5.90
2018-09-30T20:09:36.974Z,8.00
2018-09-30T20:12:05.000Z,6.93
2018-09-30T20:14:33.005Z,7.33
2018-09-30T20:17:00.942Z,6.57
2018-09-30T20:19:28.972Z,4.23
2018-09-30T20:21:56.934Z,5.27
2018-09-30T20:24:24.880Z,6.97
2018-09-30T20:26:52.901Z,6.10
2018-09-30T20:29:20.837Z,7.53
2018-09-30T20:31:48.839Z,5.00
2018-09-30T20:34:16.953Z,5.33
2018-09-30T20:36:45.821Z,6.70
2018-09-30T20:39:13.872Z,5.60
2018-09-30T20:41:41.777Z,4.33
2018-09-30T20:44:09.770Z,6.50
2018-09-30T20:46:38.075Z,4.60
2018-09-30T20:49:07.899Z,3.83
2018-09-30T20:51:35.998Z,5.37
2018-09-30T20:54:03.984Z,5.73
2018-09-30T20:56:31.997Z,4.43
2018-09-30T20:59:00.047Z,4.33
2018-09-30T21:01:28.021Z,5.23
2018-09-30T21:03:55.959Z,4.20
2018-09-30T21:06:27.772Z,3.23
2018-09-30T21:08:55.734Z,2.60
2018-09-30T21:11:23.667Z,5.07
2018-09-30T21:13:51.698Z,4.40
2018-09-30T21:16:20.672Z,4.20
2018-09-30T21:18:48.710Z,6.10
2018-09-30T21:21:16.640Z,3.93
2018-09-30T21:23:44.777Z,4.77
2018-09-30T21:26:13.258Z,4.27
2018-09-30T21:28:41.200Z,4.67
2018-09-30T21:31:09.499Z,4.53
2018-09-30T21:33:37.542Z,3.97
2018-09-30T21:36:05.556Z,7.43
2018-09-30T21:38:33.554Z,3.23
2018-09-30T21:41:01.635Z,5.10
2018-09-30T21:43:29.795Z,4.33
2018-09-30T21:45:59.188Z,4.70
2018-09-30T21:48:27.256Z,5.03
2018-09-30T21:50:55.155Z,4.37
2018-09-30T21:53:24.902Z,5.03
2018-09-30T21:55:52.907Z,8.63
2018-09-30T21:58:23.013Z,5.77
2018-09-30T22:00:59.995Z,8.10
2018-09-30T22:03:28.469Z,7.57
2018-09-30T22:05:59.393Z,4.77
2018-09-30T22:08:27.370Z,5.23
2018-09-30T22:10:55.432Z,5.30
2018-09-30T22:13:23.539Z,3.87
2018-09-30T22:15:51.622Z,4.73
2018-09-30T22:18:19.570Z,6.53
2018-09-30T22:20:47.555Z,7.17
2018-09-30T22:23:15.527Z,10.60
2018-09-30T22:25:43.509Z,9.63
2018-09-30T22:28:11.425Z,10.93
2018-09-30T22:30:39.829Z,7.03
2018-09-30T22:33:07.854Z,4.47
2018-09-30T22:35:35.782Z,3.37
2018-09-30T22:38:03.694Z,2.47
2018-09-30T22:40:31.600Z,3.70
2018-09-30T22:42:59.534Z,3.13
2018-09-30T22:45:27.505Z,4.87
2018-09-30T22:47:55.339Z,3.20
2018-09-30T22:50:23.532Z,2.73
2018-09-30T22:52:51.426Z,3.73
2018-09-30T22:55:19.550Z,3.03
2018-09-30T22:57:47.485Z,2.20
2018-09-30T23:00:15.543Z,2.53
2018-09-30T23:02:43.570Z,3.40
2018-09-30T23:05:11.466Z,5.10
2018-09-30T23:07:39.475Z,3.87
2018-09-30T23:10:09.462Z,3.30
2018-09-30T23:12:37.390Z,3.37
2018-09-30T23:15:05.453Z,6.23
2018-09-30T23:17:33.508Z,3.23
2018-09-30T23:20:02.654Z,2.20
2018-09-30T23:22:30.580Z,3.17
2018-09-30T23:24:58.599Z,3.20
2018-09-30T23:27:26.595Z,4.53
2018-09-30T23:29:54.592Z,2.10
2018-09-30T23:32:22.558Z,2.77
2018-09-30T23:34:50.551Z,3.30
2018-09-30T23:37:22.252Z,6.47
2018-09-30T23:39:51.533Z,5.07
2018-09-30T23:42:21.846Z,4.93
2018-09-30T23:44:50.538Z,4.27
2018-09-30T23:47:18.937Z,6.97
2018-09-30T23:49:48.652Z,3.03
2018-09-30T23:52:17.117Z,4.63
2018-09-30T23:54:45.407Z,4.43
2018-09-30T23:57:14.555Z,4.63
2018-09-30T23:59:43.635Z,5.93
